createdAt,value
2023-02-02T00:12:45.141Z,3.43
2023-02-02T00:32:45.116Z,3.38
2023-02-02T00:52:45.111Z,3.20
2023-02-02T01:12:45.079Z,3.31
2023-02-02T01:32:45.094Z,3.23
2023-02-02T01:52:52.160Z,3.33
2023-02-02T02:12:45.098Z,3.36
2023-02-02T02:32:45.133Z,3.37
2023-02-02T02:52:45.089Z,3.36
2023-02-02T03:12:45.095Z,3.25
2023-02-02T03:32:45.150Z,3.19
2023-02-02T03:52:45.096Z,2.89
2023-02-02T04:12:45.203Z,2.93
2023-02-02T04:32:45.108Z,2.92
2023-02-02T04:52:45.106Z,2.91
2023-02-02T05:12:45.130Z,2.94
2023-02-02T05:32:45.186Z,2.93
2023-02-02T05:52:45.112Z,3.00
2023-02-02T06:12:45.032Z,3.08
2023-02-02T06:32:45.051Z,3.08
2023-02-02T06:52:45.052Z,3.09
2023-02-02T07:12:45.063Z,3.09
2023-02-02T07:32:45.067Z,3.16
2023-02-02T07:52:45.135Z,3.16
2023-02-02T08:12:45.410Z,3.19
2023-02-02T08:32:45.205Z,3.20
2023-02-02T08:52:45.093Z,3.23
2023-02-02T09:12:44.998Z,3.28
2023-02-02T09:32:45.106Z,3.31
2023-02-02T09:52:45.052Z,3.41
2023-02-02T10:12:45.207Z,3.51
2023-02-02T10:32:45.084Z,3.60
2023-02-02T10:52:45.068Z,3.59
2023-02-02T11:12:45.077Z,3.75
2023-02-02T11:32:44.981Z,3.71
2023-02-02T11:52:44.986Z,3.63
2023-02-02T12:12:44.987Z,3.61
2023-02-02T12:32:45.015Z,3.64
2023-02-02T12:52:45.008Z,3.63
2023-02-02T13:12:45.024Z,3.57
2023-02-02T13:32:45.021Z,3.55
2023-02-02T13:52:45.180Z,3.57
2023-02-02T14:12:44.939Z,3.54
2023-02-02T14:32:44.951Z,3.56
2023-02-02T14:52:44.964Z,3.60
2023-02-02T15:12:44.961Z,3.55
2023-02-02T15:32:44.971Z,3.59
2023-02-02T15:52:44.983Z,3.56
2023-02-02T16:12:44.993Z,3.57
2023-02-02T16:32:45.001Z,3.61
2023-02-02T16:52:45.051Z,3.62
2023-02-02T17:12:44.950Z,3.62
2023-02-02T17:32:44.941Z,3.60
2023-02-02T17:52:44.931Z,3.60
2023-02-02T18:12:44.939Z,3.62
2023-02-02T18:32:44.935Z,3.63
2023-02-02T18:52:44.967Z,3.62
2023-02-02T19:12:44.971Z,3.62
2023-02-02T19:32:44.898Z,3.59
2023-02-02T19:52:44.893Z,3.61
2023-02-02T20:12:44.903Z,3.62
2023-02-02T20:32:44.921Z,3.64
2023-02-02T20:52:44.922Z,3.70
2023-02-02T21:12:44.943Z,3.74
2023-02-02T21:32:45.135Z,3.74
2023-02-02T21:52:45.030Z,3.75
2023-02-02T22:12:44.886Z,3.72
2023-02-02T22:32:44.887Z,3.75
2023-02-02T22:52:44.905Z,3.72
2023-02-02T23:12:44.895Z,3.70
2023-02-02T23:32:44.903Z,3.67
2023-02-02T23:52:44.957Z,3.64
